Flight Track Log - Related Links

Times and Time Zones

All times are in EDT time to prevent confusion due to time zone crossing. See the AAY846 flight status page for this flight to view local times or setup timezone preferences in your user account.

Time Position Orientation Groundspeed Altitude Reporting Facility
EDT Latitude Longitude Course Direction KTS MPH feet Rate Location/Type
Mon 08:54:53 AM 27.9000 -82.6833 196° South 163 188 800  Level Tampa TRACON
Mon 08:57:06 AM 27.7992 -82.7167 196° South 186 214 4,200 1,896 Climbing Jacksonville Center
Mon 08:58:06 AM 27.8536 -82.7681 320° Northwest 130 150 6,900 2,650 Climbing Jacksonville Center
Mon 08:59:06 AM 27.9369 -82.7353 19° North 186 214 9,500 2,050 Climbing Jacksonville Center
Mon 09:00:06 AM 28.0289 -82.6903 23° Northeast 283 326 11,000 1,750 Climbing Jacksonville Center
Mon 09:01:06 AM 28.1203 -82.6150 36° Northeast 336 387 13,000 2,050 Climbing Jacksonville Center
Mon 09:02:06 AM 28.2017 -82.5181 46° Northeast 386 444 15,100 2,050 Climbing Jacksonville Center
Mon 09:03:06 AM 28.2867 -82.4189 46° Northeast 407 468 17,100 2,500 Climbing Jacksonville Center
Mon 09:04:06 AM 28.3594 -82.3028 55° Northeast 432 497 20,100 2,350 Climbing Jacksonville Center
Mon 09:05:06 AM 28.4297 -82.1914 54° Northeast 437 503 21,800 1,450 Climbing Jacksonville Center
Mon 09:06:06 AM 28.5042 -82.0753 54° Northeast 442 509 23,000 1,600 Climbing Jacksonville Center
Mon 09:07:06 AM 28.6078 -81.9656 43° Northeast 448 516 25,000 1,467 Climbing Jacksonville Center
Mon 09:09:06 AM 28.8325 -81.8853 17° North 442 509 27,400 967 Climbing Jacksonville Center
Mon 09:10:06 AM 28.9478 -81.9317 341° North 410 472 27,900 900 Climbing Jacksonville Center
Mon 09:11:06 AM 29.0692 -81.9994 334° Northwest 415 478 29,200 1,200 Climbing Jacksonville Center
Mon 09:12:06 AM 29.1761 -82.0625 333° Northwest 424 488 30,300 1,000 Climbing Jacksonville Center
Mon 09:13:06 AM 29.2911 -82.0972 345° North 424 488 31,200 650 Climbing Jacksonville Center
Mon 09:14:06 AM 29.4164 -82.1106 355° North 423 487 31,600 350 Climbing Jacksonville Center
Mon 09:15:06 AM 29.5419 -82.1192 357° North 442 509 31,900 150 Climbing Jacksonville Center
Mon 09:16:06 AM 29.6714 -82.1300 356° North 454 522 31,900  Level Jacksonville Center
Mon 09:17:06 AM 29.7883 -82.1364 357° North 467 537 31,900 200 Level Jacksonville Center
Mon 09:18:06 AM 29.9136 -82.1569 352° North 458 527 32,300 400 Climbing Jacksonville Center
Mon 09:19:06 AM 30.0183 -82.2136 335° Northwest 425 489 32,700 300 Climbing Jacksonville Center
Mon 09:20:06 AM 30.1189 -82.2731 333° Northwest 412 474 32,900 100 Climbing Jacksonville Center
Mon 09:21:06 AM 30.2214 -82.3397 331° Northwest 412 474 32,900  Level Jacksonville Center
Mon 09:22:06 AM 30.3242 -82.4017 333° Northwest 412 474 32,900  Level Jacksonville Center
Mon 09:23:06 AM 30.4244 -82.4639 332° Northwest 412 474 32,900  Level Jacksonville Center
Mon 09:24:06 AM 30.5269 -82.5261 332° Northwest 412 474 32,900  Level Jacksonville Center
Mon 09:25:06 AM 30.6294 -82.5908 331° Northwest 412 474 32,900  Level Jacksonville Center
Mon 09:26:06 AM 30.7297 -82.6508 333° Northwest 412 474 32,900  Level Jacksonville Center
Mon 09:27:06 AM 30.8303 -82.7158 331° Northwest 412 474 32,900  Level Jacksonville Center
Mon 09:28:06 AM 30.9367 -82.7786 333° Northwest 412 474 32,900  Level Jacksonville Center
Mon 09:29:06 AM 31.0350 -82.8417 331° Northwest 412 474 32,900 50 Level Jacksonville Center
Mon 09:30:06 AM 31.1392 -82.9047 333° Northwest 412 474 33,000 50 Climbing Jacksonville Center
Mon 09:31:06 AM 31.2394 -82.9678 332° Northwest 412 474 33,000  Level Jacksonville Center
Mon 09:32:06 AM 31.3500 -83.0311 334° Northwest 418 481 33,000  Level Jacksonville Center
Mon 09:33:06 AM 31.4503 -83.1019 329° Northwest 418 481 33,000  Level Jacksonville Center
Mon 09:34:46 AM 31.6394 -83.2217 332° Northwest 417 480 33,000  Level Atlanta Center
Mon 09:35:46 AM 31.7483 -83.2842 334° Northwest 423 487 33,000  Level Atlanta Center
Mon 09:36:46 AM 31.8553 -83.3519 332° Northwest 428 493 33,000  Level Atlanta Center
Mon 09:37:46 AM 31.9600 -83.4219 330° Northwest 433 498 33,000  Level Atlanta Center
Mon 09:38:46 AM 32.0625 -83.4850 332° Northwest 433 498 33,000  Level Atlanta Center
Mon 09:39:46 AM 32.1653 -83.5506 332° Northwest 422 486 33,000  Level Atlanta Center
Mon 09:40:46 AM 32.2697 -83.6189 331° Northwest 422 486 33,000  Level Atlanta Center
Mon 09:41:46 AM 32.3764 -83.6872 332° Northwest 427 491 33,000  Level Atlanta Center
Mon 09:42:46 AM 32.4831 -83.7581 331° Northwest 427 491 33,000  Level Atlanta Center
Mon 09:43:46 AM 32.5875 -83.8244 332° Northwest 427 491 33,000  Level Atlanta Center
Mon 09:44:46 AM 32.6961 -83.8931 332° Northwest 432 497 33,000  Level Atlanta Center
Mon 09:45:46 AM 32.8028 -83.9622 331° Northwest 437 503 33,000  Level Atlanta Center
Mon 09:46:46 AM 32.9050 -84.0289 331° Northwest 437 503 33,000  Level Atlanta Center
Mon 09:47:46 AM 33.0072 -84.0983 330° Northwest 427 491 33,000  Level Atlanta Center
Mon 09:48:46 AM 33.1117 -84.1678 331° Northwest 427 491 33,000  Level Atlanta Center
Mon 09:49:46 AM 33.2139 -84.2375 330° Northwest 427 491 33,000  Level Atlanta Center
Mon 09:50:46 AM 33.3222 -84.3047 333° Northwest 427 491 33,000  Level Atlanta Center
Mon 09:51:46 AM 33.4264 -84.3722 332° Northwest 427 491 33,000  Level Atlanta Center
Mon 09:52:46 AM 33.5286 -84.4400 331° Northwest 427 491 33,000  Level Atlanta Center
Mon 09:53:46 AM 33.6328 -84.5078 332° Northwest 427 491 33,000  Level Atlanta Center
Mon 09:54:46 AM 33.7222 -84.5658 332° Northwest 417 480 33,000  Level Atlanta Center
Mon 09:55:46 AM 33.8219 -84.6339 330° Northwest 417 480 33,000  Level Atlanta Center
Mon 09:56:46 AM 33.9239 -84.7022 331° Northwest 417 480 33,000  Level Atlanta Center
Mon 09:57:46 AM 34.0319 -84.7808 329° Northwest 417 480 33,000  Level Atlanta Center
Mon 09:58:46 AM 34.1403 -84.8444 334° Northwest 422 486 33,000  Level Atlanta Center
Mon 09:59:46 AM 34.2400 -84.9108 331° Northwest 416 479 33,000  Level Atlanta Center
Mon 10:00:46 AM 34.3436 -84.9822 330° Northwest 416 479 33,000  Level Atlanta Center
Mon 10:01:46 AM 34.4456 -85.0514 331° Northwest 416 479 33,000  Level Atlanta Center
Mon 10:02:46 AM 34.5514 -85.1208 332° Northwest 416 479 33,000  Level Atlanta Center
Mon 10:03:46 AM 34.6383 -85.1825 330° Northwest 416 479 33,000  Level Atlanta Center
Mon 10:04:46 AM 34.7400 -85.2547 330° Northwest 416 479 33,000  Level Atlanta Center
Mon 10:05:46 AM 34.8456 -85.3269 331° Northwest 422 486 33,000  Level Atlanta Center
Mon 10:06:46 AM 34.9492 -85.3969 331° Northwest 422 486 33,000  Level Atlanta Center
Mon 10:07:46 AM 35.0508 -85.4647 331° Northwest 422 486 33,000  Level Atlanta Center
Mon 10:09:27 AM 35.2178 -85.5808 330° Northwest 424 488 33,000  Level Memphis Center
Mon 10:10:29 AM 35.3425 -85.6678 330° Northwest 425 489 33,000  Level Memphis Center
Mon 10:11:31 AM 35.4475 -85.7408 330° Northwest 427 491 33,000  Level Memphis Center
Mon 10:12:33 AM 35.5514 -85.8144 330° Northwest 427 491 33,000  Level Memphis Center
Mon 10:13:35 AM 35.6550 -85.8869 330° Northwest 427 491 33,000  Level Memphis Center
Mon 10:14:38 AM 35.7597 -85.9603 330° Northwest 428 493 33,000  Level Memphis Center
Mon 10:15:40 AM 35.8669 -86.0361 330° Northwest 436 502 33,000  Level Memphis Center
Mon 10:16:42 AM 35.9892 -86.1228 330° Northwest 435 501 33,000  Level Memphis Center
Mon 10:17:44 AM 36.0953 -86.1975 330° Northwest 434 499 33,000  Level Memphis Center
Mon 10:18:46 AM 36.2011 -86.2719 330° Northwest 434 499 33,000  Level Memphis Center
Mon 10:19:48 AM 36.3075 -86.3483 330° Northwest 435 501 33,000  Level Memphis Center
Mon 10:20:50 AM 36.4136 -86.4242 330° Northwest 437 503 33,000  Level Memphis Center
Mon 10:21:52 AM 36.5189 -86.4997 330° Northwest 437 503 33,000  Level Memphis Center
Mon 10:22:54 AM 36.6392 -86.5869 330° Northwest 432 497 33,000 97 Level Memphis Center
Mon 10:23:56 AM 36.7439 -86.6622 330° Northwest 431 496 33,200 339 Climbing Memphis Center
Mon 10:24:58 AM 36.8492 -86.7386 330° Northwest 432 497 33,700 387 Climbing Memphis Center
Mon 10:26:00 AM 36.9553 -86.8164 330° Northwest 436 502 34,000 145 Climbing Memphis Center
Mon 10:27:02 AM 37.0575 -86.8919 329° Northwest 431 496 34,000  Level Memphis Center
Mon 10:28:04 AM 37.1606 -86.9672 330° Northwest 427 491 34,000  Level Memphis Center
Mon 10:29:07 AM 37.2811 -87.0558 330° Northwest 427 491 34,000  Level Memphis Center
Mon 10:30:09 AM 37.3828 -87.1319 329° Northwest 427 491 34,000  Level Memphis Center
Mon 10:31:26 AM 37.5014 -87.2183 330° Northwest 422 486 34,000  Level Indianapolis Center
Mon 10:32:27 AM 37.5972 -87.2894 330° Northwest 403 464 34,000 -439 Level Indianapolis Center
Mon 10:33:29 AM 37.7106 -87.3739 329° Northwest 402 463 33,100 -484 Descending Indianapolis Center
Mon 10:34:31 AM 37.8017 -87.4428 329° Northwest 396 456 33,000 -48 Descending Indianapolis Center
Mon 10:35:33 AM 37.8961 -87.5139 329° Northwest 393 452 33,000 -339 Level Indianapolis Center
Mon 10:36:35 AM 37.9922 -87.5847 330° Northwest 393 452 32,300 -1,016 Descending Indianapolis Center
Mon 10:37:37 AM 38.0861 -87.6572 329° Northwest 393 452 30,900 -1,122 Descending Indianapolis Center
Mon 10:38:38 AM 38.1778 -87.7258 330° Northwest 386 444 30,000 -683 Descending Indianapolis Center
Mon 10:39:40 AM 38.2694 -87.7956 329° Northwest 380 437 29,500 -726 Descending Indianapolis Center
Mon 10:40:42 AM 38.3606 -87.8661 329° Northwest 380 437 28,500 -726 Descending Indianapolis Center
Mon 10:41:44 AM 38.4542 -87.9364 330° Northwest 381 438 28,000 -242 Descending Indianapolis Center
Mon 10:42:46 AM 38.5672 -88.0236 329° Northwest 388 447 28,000  Level Indianapolis Center
Mon 10:43:47 AM 38.6608 -88.0944 329° Northwest 388 447 28,000  Level Indianapolis Center
Mon 10:44:49 AM 38.7531 -88.1661 329° Northwest 388 447 28,000  Level Indianapolis Center
Mon 10:45:53 AM 38.8442 -88.2381 328° Northwest 388 447 28,000 -288 Level Kansas City Center
Mon 10:46:54 AM 38.9369 -88.3094 329° Northwest 387 445 27,400 -1,113 Descending Kansas City Center
Mon 10:47:57 AM 39.0303 -88.3817 329° Northwest 387 445 25,700 -1,714 Descending Kansas City Center
Mon 10:49:00 AM 39.1253 -88.4558 329° Northwest 392 451 23,800 -1,742 Descending Kansas City Center
Mon 10:50:01 AM 39.2150 -88.5228 330° Northwest 381 438 22,100 -1,659 Descending Kansas City Center
Mon 10:51:03 AM 39.3081 -88.5975 328° Northwest 366 421 20,400 -1,707 Descending Kansas City Center
Mon 10:52:04 AM 39.4022 -88.6717 329° Northwest 364 419 18,600 -1,645 Descending Kansas City Center
Mon 10:53:07 AM 39.4836 -88.7350 329° Northwest 350 403 17,000 -1,488 Descending Kansas City Center
Mon 10:54:09 AM 39.5625 -88.7983 328° Northwest 339 390 15,500 -1,536 Descending Kansas City Center
Mon 10:55:12 AM 39.6408 -88.8611 328° Northwest 336 387 13,800 -1,561 Descending Kansas City Center
Mon 10:56:12 AM 39.7144 -88.9206 328° Northwest 318 366 12,300 -919 Descending Kansas City Center
Mon 10:57:16 AM 39.8033 -88.9908 329° Northwest 316 364 11,900 -145 Descending Kansas City Center
Mon 10:58:16 AM 39.8711 -89.0469 328° Northwest 296 341 12,000 48 Climbing Kansas City Center
Mon 10:59:20 AM 39.9392 -89.0994 329° Northwest 287 330 12,000  Level Kansas City Center
Mon 11:00:21 AM 40.0078 -89.1553 328° Northwest 287 330 12,000 -384 Level Kansas City Center
Mon 11:01:25 AM 40.0769 -89.2117 328° Northwest 290 334 11,200 -432 Descending Kansas City Center
Mon 11:02:26 AM 40.1467 -89.2683 328° Northwest 294 338 11,100 -336 Descending Kansas City Center
Mon 11:03:30 AM 40.2272 -89.3339 328° Northwest 289 333 10,500 -871 Descending Kansas City Center
Mon 11:04:30 AM 40.2917 -89.3858 328° Northwest 278 320 9,300 -1,230 Descending Kansas City Center
Mon 11:05:32 AM 40.3525 -89.4356 328° Northwest 265 305 8,000 -1,359 Descending Kansas City Center
Mon 11:06:38 AM 40.4106 -89.4867 326° Northwest 259 298 6,400 -1,641 Descending Chicago Center
Mon 11:07:40 AM 40.4747 -89.5536 322° Northwest 250 288 4,500 -1,805 Descending Chicago Center
Mon 11:08:41 AM 40.5233 -89.6169 315° West 251 289 2,700 -1,073 Descending Chicago Center
Mon 11:09:43 AM 40.5675 -89.6778 314° West 240 276 2,300 -390 Descending Chicago Center
Mon 11:10:44 AM 40.6092 -89.7208 322° Northwest 212 244 1,900 -732 Descending Chicago Center
Mon 11:11:46 AM 40.6478 -89.6994 23° Northeast 181 208 800 -629 Descending Chicago Center
Mon 11:12:48 AM 40.6844 -89.6600 39° Northeast 169 194 600 -194 Descending Chicago Center

Login

Don't have an account? Register now (free) for customized features, flight alerts, and more!